sensor_id;sensor_type;location;lat;lon;timestamp;temperature;humidity
43015;DHT22;28637;50.554;7.032;2024-03-02T00:01:12;8.20;99.90
43015;DHT22;28637;50.554;7.032;2024-03-02T00:06:13;8.30;99.90
43015;DHT22;28637;50.554;7.032;2024-03-02T00:11:13;8.40;99.90
43015;DHT22;28637;50.554;7.032;2024-03-02T00:16:15;8.40;99.90
43015;DHT22;28637;50.554;7.032;2024-03-02T00:21:19;8.50;99.90
43015;DHT22;28637;50.554;7.032;2024-03-02T00:26:22;8.50;99.90
43015;DHT22;28637;50.554;7.032;2024-03-02T00:31:23;8.50;99.90
43015;DHT22;28637;50.554;7.032;2024-03-02T00:36:27;8.50;99.90
43015;DHT22;28637;50.554;7.032;2024-03-02T00:41:30;8.50;99.90
43015;DHT22;28637;50.554;7.032;2024-03-02T00:46:39;8.40;99.90
43015;DHT22;28637;50.554;7.032;2024-03-02T00:51:40;8.40;99.90
43015;DHT22;28637;50.554;7.032;2024-03-02T00:56:42;8.30;99.90
43015;DHT22;28637;50.554;7.032;2024-03-02T01:01:43;8.40;99.90
43015;DHT22;28637;50.554;7.032;2024-03-02T01:06:43;8.30;99.90
43015;DHT22;28637;50.554;7.032;2024-03-02T01:11:44;8.30;99.90
43015;DHT22;28637;50.554;7.032;2024-03-02T01:16:45;8.20;99.90
43015;DHT22;28637;50.554;7.032;2024-03-02T01:21:45;8.20;99.90
43015;DHT22;28637;50.554;7.032;2024-03-02T01:26:46;8.10;99.90
43015;DHT22;28637;50.554;7.032;2024-03-02T01:31:46;8.00;99.90
43015;DHT22;28637;50.554;7.032;2024-03-02T01:36:48;8.00;99.90
43015;DHT22;28637;50.554;7.032;2024-03-02T01:41:48;8.00;99.90
43015;DHT22;28637;50.554;7.032;2024-03-02T01:46:49;8.00;99.90
43015;DHT22;28637;50.554;7.032;2024-03-02T01:51:51;7.90;99.90
43015;DHT22;28637;50.554;7.032;2024-03-02T01:56:52;7.90;99.90
43015;DHT22;28637;50.554;7.032;2024-03-02T02:01:52;7.80;99.90
43015;DHT22;28637;50.554;7.032;2024-03-02T02:06:54;7.80;99.90
43015;DHT22;28637;50.554;7.032;2024-03-02T02:11:59;7.80;99.90
43015;DHT22;28637;50.554;7.032;2024-03-02T02:17:00;7.90;99.90
43015;DHT22;28637;50.554;7.032;2024-03-02T02:22:00;7.90;99.90
43015;DHT22;28637;50.554;7.032;2024-03-02T02:27:01;7.90;99.90
43015;DHT22;28637;50.554;7.032;2024-03-02T02:32:02;7.90;99.90
43015;DHT22;28637;50.554;7.032;2024-03-02T02:37:02;8.00;99.90
43015;DHT22;28637;50.554;7.032;2024-03-02T02:42:03;8.00;99.90
43015;DHT22;28637;50.554;7.032;2024-03-02T02:47:04;8.10;99.90
43015;DHT22;28637;50.554;7.032;2024-03-02T02:52:05;8.10;99.90
43015;DHT22;28637;50.554;7.032;2024-03-02T02:57:05;8.20;99.90
43015;DHT22;28637;50.554;7.032;2024-03-02T03:02:06;8.30;99.90
43015;DHT22;28637;50.554;7.032;2024-03-02T03:07:07;8.40;99.90
43015;DHT22;28637;50.554;7.032;2024-03-02T03:12:07;8.50;99.90
43015;DHT22;28637;50.554;7.032;2024-03-02T03:17:08;8.50;99.90
43015;DHT22;28637;50.554;7.032;2024-03-02T03:22:09;8.50;99.90
43015;DHT22;28637;50.554;7.032;2024-03-02T03:27:10;8.50;99.90
43015;DHT22;28637;50.554;7.032;2024-03-02T03:32:12;8.50;99.90
43015;DHT22;28637;50.554;7.032;2024-03-02T03:37:12;8.60;99.90
43015;DHT22;28637;50.554;7.032;2024-03-02T03:42:13;8.60;99.90
43015;DHT22;28637;50.554;7.032;2024-03-02T03:47:14;8.70;99.90
43015;DHT22;28637;50.554;7.032;2024-03-02T03:52:14;8.70;99.90
43015;DHT22;28637;50.554;7.032;2024-03-02T03:57:15;8.80;99.90
43015;DHT22;28637;50.554;7.032;2024-03-02T04:02:16;8.80;99.90
43015;DHT22;28637;50.554;7.032;2024-03-02T04:07:17;8.80;99.90
43015;DHT22;28637;50.554;7.032;2024-03-02T04:12:18;8.70;99.90
43015;DHT22;28637;50.554;7.032;2024-03-02T04:17:19;8.70;99.90
43015;DHT22;28637;50.554;7.032;2024-03-02T04:22:19;8.70;99.90
43015;DHT22;28637;50.554;7.032;2024-03-02T04:27:20;8.50;99.90
43015;DHT22;28637;50.554;7.032;2024-03-02T04:32:20;8.40;99.90
43015;DHT22;28637;50.554;7.032;2024-03-02T04:37:21;8.40;99.90
43015;DHT22;28637;50.554;7.032;2024-03-02T04:42:22;8.50;99.90
43015;DHT22;28637;50.554;7.032;2024-03-02T04:47:23;8.50;99.90
43015;DHT22;28637;50.554;7.032;2024-03-02T04:52:23;8.60;99.90
43015;DHT22;28637;50.554;7.032;2024-03-02T04:57:24;8.70;99.90
43015;DHT22;28637;50.554;7.032;2024-03-02T05:02:25;8.70;99.90
43015;DHT22;28637;50.554;7.032;2024-03-02T05:07:25;8.70;99.90
43015;DHT22;28637;50.554;7.032;2024-03-02T05:12:26;8.70;99.90
43015;DHT22;28637;50.554;7.032;2024-03-02T05:17:49;8.60;99.90
43015;DHT22;28637;50.554;7.032;2024-03-02T05:22:50;8.60;99.90
43015;DHT22;28637;50.554;7.032;2024-03-02T05:27:50;8.30;99.90
43015;DHT22;28637;50.554;7.032;2024-03-02T05:32:51;8.30;99.90
43015;DHT22;28637;50.554;7.032;2024-03-02T05:37:52;8.30;99.90
43015;DHT22;28637;50.554;7.032;2024-03-02T05:42:53;8.30;99.90
43015;DHT22;28637;50.554;7.032;2024-03-02T05:47:53;8.20;99.90
43015;DHT22;28637;50.554;7.032;2024-03-02T05:52:54;8.10;99.90
43015;DHT22;28637;50.554;7.032;2024-03-02T05:57:56;8.20;99.90
43015;DHT22;28637;50.554;7.032;2024-03-02T06:03:06;8.20;99.90
43015;DHT22;28637;50.554;7.032;2024-03-02T06:08:08;8.10;99.90
43015;DHT22;28637;50.554;7.032;2024-03-02T06:13:08;8.10;99.90
43015;DHT22;28637;50.554;7.032;2024-03-02T06:18:09;8.10;99.90
43015;DHT22;28637;50.554;7.032;2024-03-02T06:23:10;8.00;99.90
43015;DHT22;28637;50.554;7.032;2024-03-02T06:28:10;7.90;99.90
43015;DHT22;28637;50.554;7.032;2024-03-02T06:33:11;7.80;99.90
43015;DHT22;28637;50.554;7.032;2024-03-02T06:38:12;7.70;99.90
43015;DHT22;28637;50.554;7.032;2024-03-02T06:43:12;7.80;99.90
43015;DHT22;28637;50.554;7.032;2024-03-02T06:48:13;7.80;99.90
43015;DHT22;28637;50.554;7.032;2024-03-02T06:53:16;7.80;99.90
43015;DHT22;28637;50.554;7.032;2024-03-02T06:58:20;7.80;99.90
43015;DHT22;28637;50.554;7.032;2024-03-02T07:03:20;7.70;99.90
43015;DHT22;28637;50.554;7.032;2024-03-02T07:08:21;7.70;99.90
43015;DHT22;28637;50.554;7.032;2024-03-02T07:13:22;7.70;99.90
43015;DHT22;28637;50.554;7.032;2024-03-02T07:18:22;7.80;99.90
43015;DHT22;28637;50.554;7.032;2024-03-02T07:23:23;7.90;99.90
43015;DHT22;28637;50.554;7.032;2024-03-02T07:28:27;8.00;99.90
43015;DHT22;28637;50.554;7.032;2024-03-02T07:33:28;8.20;99.90
43015;DHT22;28637;50.554;7.032;2024-03-02T07:38:29;8.30;99.90
43015;DHT22;28637;50.554;7.032;2024-03-02T07:43:30;8.40;99.90
43015;DHT22;28637;50.554;7.032;2024-03-02T07:48:33;8.30;99.90
43015;DHT22;28637;50.554;7.032;2024-03-02T07:53:34;8.30;99.90
43015;DHT22;28637;50.554;7.032;2024-03-02T07:58:35;8.50;99.90
43015;DHT22;28637;50.554;7.032;2024-03-02T08:03:36;8.60;99.90
43015;DHT22;28637;50.554;7.032;2024-03-02T08:08:44;8.90;99.90
43015;DHT22;28637;50.554;7.032;2024-03-02T08:13:45;9.10;99.90
43015;DHT22;28637;50.554;7.032;2024-03-02T08:18:47;9.30;99.90
43015;DHT22;28637;50.554;7.032;2024-03-02T08:23:48;9.60;99.90
43015;DHT22;28637;50.554;7.032;2024-03-02T08:28:48;10.10;99.90
43015;DHT22;28637;50.554;7.032;2024-03-02T08:33:49;10.30;99.90
43015;DHT22;28637;50.554;7.032;2024-03-02T08:38:50;10.30;99.90
43015;DHT22;28637;50.554;7.032;2024-03-02T08:43:51;10.40;99.90
43015;DHT22;28637;50.554;7.032;2024-03-02T08:48:51;10.40;99.90
43015;DHT22;28637;50.554;7.032;2024-03-02T08:53:52;10.50;99.90
43015;DHT22;28637;50.554;7.032;2024-03-02T08:58:53;10.60;99.90
43015;DHT22;28637;50.554;7.032;2024-03-02T09:03:53;10.60;99.90
43015;DHT22;28637;50.554;7.032;2024-03-02T09:08:54;10.90;99.90
43015;DHT22;28637;50.554;7.032;2024-03-02T09:13:55;11.00;99.90
43015;DHT22;28637;50.554;7.032;2024-03-02T09:18:57;11.10;99.90
43015;DHT22;28637;50.554;7.032;2024-03-02T09:23:58;11.30;99.90
43015;DHT22;28637;50.554;7.032;2024-03-02T09:28:59;11.70;99.90
43015;DHT22;28637;50.554;7.032;2024-03-02T09:33:59;11.80;99.90
43015;DHT22;28637;50.554;7.032;2024-03-02T09:39:00;11.80;99.90
43015;DHT22;28637;50.554;7.032;2024-03-02T09:44:01;11.90;99.90
43015;DHT22;28637;50.554;7.032;2024-03-02T09:49:02;12.00;99.90
43015;DHT22;28637;50.554;7.032;2024-03-02T09:54:04;12.50;99.90
43015;DHT22;28637;50.554;7.032;2024-03-02T09:59:05;12.70;99.90
43015;DHT22;28637;50.554;7.032;2024-03-02T10:04:06;12.90;99.90
43015;DHT22;28637;50.554;7.032;2024-03-02T10:09:06;12.60;99.90
43015;DHT22;28637;50.554;7.032;2024-03-02T10:14:11;12.50;99.90
43015;DHT22;28637;50.554;7.032;2024-03-02T10:19:22;12.20;99.90
43015;DHT22;28637;50.554;7.032;2024-03-02T10:24:23;12.10;99.90
43015;DHT22;28637;50.554;7.032;2024-03-02T10:29:24;12.40;99.90
43015;DHT22;28637;50.554;7.032;2024-03-02T10:34:28;12.90;99.90
43015;DHT22;28637;50.554;7.032;2024-03-02T10:39:29;13.30;99.90
43015;DHT22;28637;50.554;7.032;2024-03-02T10:44:32;13.10;99.90
43015;DHT22;28637;50.554;7.032;2024-03-02T10:49:33;12.90;99.90
43015;DHT22;28637;50.554;7.032;2024-03-02T10:54:33;12.80;99.90
43015;DHT22;28637;50.554;7.032;2024-03-02T10:59:37;12.60;99.90
43015;DHT22;28637;50.554;7.032;2024-03-02T11:04:42;12.50;99.90
43015;DHT22;28637;50.554;7.032;2024-03-02T11:09:54;12.30;99.90
43015;DHT22;28637;50.554;7.032;2024-03-02T11:14:55;12.10;99.90
43015;DHT22;28637;50.554;7.032;2024-03-02T11:19:57;12.10;99.90
43015;DHT22;28637;50.554;7.032;2024-03-02T11:24:58;12.40;99.90
43015;DHT22;28637;50.554;7.032;2024-03-02T11:30:00;13.30;99.90
43015;DHT22;28637;50.554;7.032;2024-03-02T11:35:02;13.70;99.90
43015;DHT22;28637;50.554;7.032;2024-03-02T11:40:03;13.50;99.90
43015;DHT22;28637;50.554;7.032;2024-03-02T11:45:04;13.10;99.90
43015;DHT22;28637;50.554;7.032;2024-03-02T11:50:10;12.80;99.90
43015;DHT22;28637;50.554;7.032;2024-03-02T11:55:11;12.60;99.90
43015;DHT22;28637;50.554;7.032;2024-03-02T12:00:19;12.40;99.90
43015;DHT22;28637;50.554;7.032;2024-03-02T12:05:21;12.60;99.90
43015;DHT22;28637;50.554;7.032;2024-03-02T12:10:21;12.60;99.90
43015;DHT22;28637;50.554;7.032;2024-03-02T12:15:27;12.60;99.90
43015;DHT22;28637;50.554;7.032;2024-03-02T12:20:29;12.80;99.90
43015;DHT22;28637;50.554;7.032;2024-03-02T12:25:31;13.40;99.90
43015;DHT22;28637;50.554;7.032;2024-03-02T12:30:35;13.50;99.90
43015;DHT22;28637;50.554;7.032;2024-03-02T12:35:36;13.70;99.90
43015;DHT22;28637;50.554;7.032;2024-03-02T12:40:37;13.70;99.90
43015;DHT22;28637;50.554;7.032;2024-03-02T12:45:37;13.70;99.90
43015;DHT22;28637;50.554;7.032;2024-03-02T12:50:38;13.80;99.90
43015;DHT22;28637;50.554;7.032;2024-03-02T12:55:39;13.90;99.90
43015;DHT22;28637;50.554;7.032;2024-03-02T13:00:40;13.90;99.90
43015;DHT22;28637;50.554;7.032;2024-03-02T13:05:40;13.90;99.90
43015;DHT22;28637;50.554;7.032;2024-03-02T13:10:41;13.90;99.90
43015;DHT22;28637;50.554;7.032;2024-03-02T13:15:42;13.80;99.90
43015;DHT22;28637;50.554;7.032;2024-03-02T13:20:42;13.70;99.90
43015;DHT22;28637;50.554;7.032;2024-03-02T13:25:43;14.00;99.90
43015;DHT22;28637;50.554;7.032;2024-03-02T13:30:45;14.30;99.90
43015;DHT22;28637;50.554;7.032;2024-03-02T13:35:45;14.80;99.90
43015;DHT22;28637;50.554;7.032;2024-03-02T13:40:48;15.40;99.90
43015;DHT22;28637;50.554;7.032;2024-03-02T13:45:51;16.00;99.90
43015;DHT22;28637;50.554;7.032;2024-03-02T13:50:53;16.10;99.90
43015;DHT22;28637;50.554;7.032;2024-03-02T13:55:54;16.60;99.90
43015;DHT22;28637;50.554;7.032;2024-03-02T14:00:54;16.10;99.90
43015;DHT22;28637;50.554;7.032;2024-03-02T14:05:57;15.50;99.90
43015;DHT22;28637;50.554;7.032;2024-03-02T14:10:58;15.10;99.90
43015;DHT22;28637;50.554;7.032;2024-03-02T14:16:00;14.60;99.90
43015;DHT22;28637;50.554;7.032;2024-03-02T14:21:01;14.20;99.90
43015;DHT22;28637;50.554;7.032;2024-03-02T14:26:02;14.00;99.90
43015;DHT22;28637;50.554;7.032;2024-03-02T14:31:03;13.70;99.90
43015;DHT22;28637;50.554;7.032;2024-03-02T14:36:04;13.60;99.90
43015;DHT22;28637;50.554;7.032;2024-03-02T14:41:05;13.50;99.90
43015;DHT22;28637;50.554;7.032;2024-03-02T14:46:06;13.50;99.90
43015;DHT22;28637;50.554;7.032;2024-03-02T14:51:10;13.50;99.90
43015;DHT22;28637;50.554;7.032;2024-03-02T14:56:11;13.50;99.90
43015;DHT22;28637;50.554;7.032;2024-03-02T15:01:13;13.40;99.90
43015;DHT22;28637;50.554;7.032;2024-03-02T15:06:14;13.50;99.90
43015;DHT22;28637;50.554;7.032;2024-03-02T15:11:15;13.40;99.90
43015;DHT22;28637;50.554;7.032;2024-03-02T15:16:15;13.40;99.90
43015;DHT22;28637;50.554;7.032;2024-03-02T15:21:16;13.40;99.90
43015;DHT22;28637;50.554;7.032;2024-03-02T15:26:17;13.40;99.90
43015;DHT22;28637;50.554;7.032;2024-03-02T15:31:18;13.30;99.90
43015;DHT22;28637;50.554;7.032;2024-03-02T15:36:19;13.10;99.90
43015;DHT22;28637;50.554;7.032;2024-03-02T15:41:19;13.00;99.90
43015;DHT22;28637;50.554;7.032;2024-03-02T15:46:20;12.90;99.90
43015;DHT22;28637;50.554;7.032;2024-03-02T15:51:21;12.80;99.90
43015;DHT22;28637;50.554;7.032;2024-03-02T15:56:23;12.70;99.90
43015;DHT22;28637;50.554;7.032;2024-03-02T16:01:23;12.70;99.90
43015;DHT22;28637;50.554;7.032;2024-03-02T16:06:24;12.80;99.90
43015;DHT22;28637;50.554;7.032;2024-03-02T16:11:25;12.70;99.90
43015;DHT22;28637;50.554;7.032;2024-03-02T16:16:25;12.60;99.90
43015;DHT22;28637;50.554;7.032;2024-03-02T16:21:26;12.60;99.90
43015;DHT22;28637;50.554;7.032;2024-03-02T16:26:27;12.50;99.90
43015;DHT22;28637;50.554;7.032;2024-03-02T16:31:27;12.40;99.90
43015;DHT22;28637;50.554;7.032;2024-03-02T16:36:28;12.40;99.90
43015;DHT22;28637;50.554;7.032;2024-03-02T16:41:32;12.30;99.90
43015;DHT22;28637;50.554;7.032;2024-03-02T16:46:33;12.30;99.90
43015;DHT22;28637;50.554;7.032;2024-03-02T16:51:43;12.20;99.90
43015;DHT22;28637;50.554;7.032;2024-03-02T16:56:44;12.20;99.90
43015;DHT22;28637;50.554;7.032;2024-03-02T17:01:45;12.20;99.90
43015;DHT22;28637;50.554;7.032;2024-03-02T17:06:46;12.10;99.90
43015;DHT22;28637;50.554;7.032;2024-03-02T17:11:47;12.10;99.90
43015;DHT22;28637;50.554;7.032;2024-03-02T17:16:48;12.00;99.90
43015;DHT22;28637;50.554;7.032;2024-03-02T17:21:50;12.00;99.90
43015;DHT22;28637;50.554;7.032;2024-03-02T17:26:51;12.00;99.90
43015;DHT22;28637;50.554;7.032;2024-03-02T17:31:51;11.90;99.90
43015;DHT22;28637;50.554;7.032;2024-03-02T17:36:52;11.90;99.90
43015;DHT22;28637;50.554;7.032;2024-03-02T17:41:53;11.90;99.90
43015;DHT22;28637;50.554;7.032;2024-03-02T17:46:53;11.90;99.90
43015;DHT22;28637;50.554;7.032;2024-03-02T17:51:54;11.90;99.90
43015;DHT22;28637;50.554;7.032;2024-03-02T17:56:55;11.90;99.90
43015;DHT22;28637;50.554;7.032;2024-03-02T18:01:55;11.80;99.90
43015;DHT22;28637;50.554;7.032;2024-03-02T18:06:56;11.80;99.90
43015;DHT22;28637;50.554;7.032;2024-03-02T18:11:58;11.90;99.90
43015;DHT22;28637;50.554;7.032;2024-03-02T18:16:59;11.90;99.90
43015;DHT22;28637;50.554;7.032;2024-03-02T18:22:00;11.90;99.90
43015;DHT22;28637;50.554;7.032;2024-03-02T18:27:00;11.90;99.90
43015;DHT22;28637;50.554;7.032;2024-03-02T18:32:01;11.80;99.90
43015;DHT22;28637;50.554;7.032;2024-03-02T18:37:04;11.80;99.90
43015;DHT22;28637;50.554;7.032;2024-03-02T18:42:05;11.70;99.90
43015;DHT22;28637;50.554;7.032;2024-03-02T18:47:05;11.70;99.90
43015;DHT22;28637;50.554;7.032;2024-03-02T18:52:06;11.70;99.90
43015;DHT22;28637;50.554;7.032;2024-03-02T18:57:07;11.70;99.90
43015;DHT22;28637;50.554;7.032;2024-03-02T19:02:07;11.70;99.90
43015;DHT22;28637;50.554;7.032;2024-03-02T19:07:08;11.70;99.90
43015;DHT22;28637;50.554;7.032;2024-03-02T19:12:10;11.60;99.90
43015;DHT22;28637;50.554;7.032;2024-03-02T19:17:11;11.60;99.90
43015;DHT22;28637;50.554;7.032;2024-03-02T19:22:11;11.70;99.90
43015;DHT22;28637;50.554;7.032;2024-03-02T19:27:12;11.60;99.90
43015;DHT22;28637;50.554;7.032;2024-03-02T19:32:13;11.70;99.90
43015;DHT22;28637;50.554;7.032;2024-03-02T19:37:13;11.70;99.90
43015;DHT22;28637;50.554;7.032;2024-03-02T19:42:14;11.70;99.90
43015;DHT22;28637;50.554;7.032;2024-03-02T19:47:15;11.80;99.90
43015;DHT22;28637;50.554;7.032;2024-03-02T19:52:18;11.80;99.90
43015;DHT22;28637;50.554;7.032;2024-03-02T19:57:19;11.80;99.90
43015;DHT22;28637;50.554;7.032;2024-03-02T20:02:20;11.80;99.90
43015;DHT22;28637;50.554;7.032;2024-03-02T20:07:22;11.80;99.90
43015;DHT22;28637;50.554;7.032;2024-03-02T20:12:23;11.80;99.90
43015;DHT22;28637;50.554;7.032;2024-03-02T20:17:23;11.70;99.90
43015;DHT22;28637;50.554;7.032;2024-03-02T20:22:24;11.70;99.90
43015;DHT22;28637;50.554;7.032;2024-03-02T20:27:24;11.70;99.90
43015;DHT22;28637;50.554;7.032;2024-03-02T20:32:25;11.60;99.90
43015;DHT22;28637;50.554;7.032;2024-03-02T20:37:26;11.50;99.90
43015;DHT22;28637;50.554;7.032;2024-03-02T20:42:28;11.40;99.90
43015;DHT22;28637;50.554;7.032;2024-03-02T20:47:28;11.40;99.90
43015;DHT22;28637;50.554;7.032;2024-03-02T20:52:30;11.30;99.90
43015;DHT22;28637;50.554;7.032;2024-03-02T20:57:30;11.30;99.90
43015;DHT22;28637;50.554;7.032;2024-03-02T21:02:31;11.30;99.90
43015;DHT22;28637;50.554;7.032;2024-03-02T21:07:32;11.30;99.90
43015;DHT22;28637;50.554;7.032;2024-03-02T21:12:38;11.30;99.90
43015;DHT22;28637;50.554;7.032;2024-03-02T21:17:42;11.30;99.90
43015;DHT22;28637;50.554;7.032;2024-03-02T21:22:42;11.30;99.90
43015;DHT22;28637;50.554;7.032;2024-03-02T21:27:47;11.20;99.90
43015;DHT22;28637;50.554;7.032;2024-03-02T21:32:51;11.20;99.90
43015;DHT22;28637;50.554;7.032;2024-03-02T21:37:52;11.10;99.90
43015;DHT22;28637;50.554;7.032;2024-03-02T21:42:52;11.10;99.90
43015;DHT22;28637;50.554;7.032;2024-03-02T21:47:53;11.00;99.90
43015;DHT22;28637;50.554;7.032;2024-03-02T21:52:54;10.90;99.90
43015;DHT22;28637;50.554;7.032;2024-03-02T21:57:55;10.90;99.90
43015;DHT22;28637;50.554;7.032;2024-03-02T22:02:56;11.00;99.90
43015;DHT22;28637;50.554;7.032;2024-03-02T22:07:56;10.90;99.90
43015;DHT22;28637;50.554;7.032;2024-03-02T22:12:57;10.90;99.90
43015;DHT22;28637;50.554;7.032;2024-03-02T22:18:00;11.00;99.90
43015;DHT22;28637;50.554;7.032;2024-03-02T22:23:03;11.00;99.90
43015;DHT22;28637;50.554;7.032;2024-03-02T22:28:04;11.00;99.90
43015;DHT22;28637;50.554;7.032;2024-03-02T22:33:04;11.00;99.90
43015;DHT22;28637;50.554;7.032;2024-03-02T22:38:05;11.00;99.90
43015;DHT22;28637;50.554;7.032;2024-03-02T22:43:06;11.00;99.90
43015;DHT22;28637;50.554;7.032;2024-03-02T22:48:07;11.00;99.90
43015;DHT22;28637;50.554;7.032;2024-03-02T22:53:07;11.00;99.90
43015;DHT22;28637;50.554;7.032;2024-03-02T22:58:08;10.90;99.90
43015;DHT22;28637;50.554;7.032;2024-03-02T23:03:09;10.80;99.90
43015;DHT22;28637;50.554;7.032;2024-03-02T23:08:09;10.60;99.90
43015;DHT22;28637;50.554;7.032;2024-03-02T23:13:10;10.30;99.90
43015;DHT22;28637;50.554;7.032;2024-03-02T23:18:11;10.10;99.90
43015;DHT22;28637;50.554;7.032;2024-03-02T23:23:11;10.00;99.90
43015;DHT22;28637;50.554;7.032;2024-03-02T23:28:12;10.00;99.90
43015;DHT22;28637;50.554;7.032;2024-03-02T23:33:13;10.10;99.90
43015;DHT22;28637;50.554;7.032;2024-03-02T23:38:13;10.10;99.90
43015;DHT22;28637;50.554;7.032;2024-03-02T23:43:14;10.00;99.90
43015;DHT22;28637;50.554;7.032;2024-03-02T23:48:15;10.10;99.90
43015;DHT22;28637;50.554;7.032;2024-03-02T23:53:16;10.20;99.90
43015;DHT22;28637;50.554;7.032;2024-03-02T23:58:16;10.20;99.90
